createdAt,value
2022-10-04T00:02:25.759Z,7.80
2022-10-04T00:05:03.104Z,8.10
2022-10-04T00:07:35.271Z,11.10
2022-10-04T00:10:08.437Z,6.83
2022-10-04T00:12:39.411Z,8.17
2022-10-04T00:15:19.021Z,9.30
2022-10-04T00:18:00.363Z,7.70
2022-10-04T00:20:59.327Z,10.80
2022-10-04T00:23:30.184Z,7.83
2022-10-04T00:25:59.840Z,9.37
2022-10-04T00:28:43.043Z,8.90
2022-10-04T00:31:25.590Z,8.03
2022-10-04T00:33:57.080Z,5.30
2022-10-04T00:36:42.371Z,7.20
2022-10-04T00:39:42.935Z,6.70
2022-10-04T00:42:40.980Z,6.10
2022-10-04T00:45:19.716Z,9.33
2022-10-04T00:48:05.193Z,6.93
2022-10-04T00:50:38.029Z,8.77
2022-10-04T00:53:20.047Z,7.47
2022-10-04T00:55:52.436Z,8.33
2022-10-04T00:58:26.464Z,9.07
2022-10-04T01:00:56.270Z,9.63
2022-10-04T01:03:31.466Z,5.50
2022-10-04T01:06:03.310Z,7.90
2022-10-04T01:08:35.765Z,9.20
2022-10-04T01:11:09.423Z,9.67
2022-10-04T01:13:41.149Z,8.93
2022-10-04T01:16:14.876Z,8.10
2022-10-04T01:18:43.129Z,8.37
2022-10-04T01:21:27.039Z,11.97
2022-10-04T01:24:22.193Z,7.37
2022-10-04T01:26:50.075Z,7.07
2022-10-04T01:29:19.884Z,7.33
2022-10-04T01:31:49.968Z,6.30
2022-10-04T01:34:19.895Z,8.00
2022-10-04T01:36:49.039Z,6.47
2022-10-04T01:39:20.309Z,6.97
2022-10-04T01:41:53.955Z,6.40
2022-10-04T01:44:28.929Z,5.93
2022-10-04T01:47:00.395Z,6.70
2022-10-04T01:49:32.518Z,8.50
2022-10-04T01:52:06.573Z,9.20
2022-10-04T01:54:39.884Z,6.53
2022-10-04T01:57:13.894Z,7.53
2022-10-04T01:59:47.419Z,9.60
2022-10-04T02:02:23.096Z,7.50
2022-10-04T02:04:54.878Z,8.43
2022-10-04T02:07:23.423Z,7.43
2022-10-04T02:09:59.432Z,13.27
2022-10-04T02:12:28.825Z,6.33
2022-10-04T02:14:59.205Z,9.37
2022-10-04T02:17:29.310Z,6.47
2022-10-04T02:19:58.784Z,9.20
2022-10-04T02:22:27.240Z,7.90
2022-10-04T02:24:58.688Z,12.23
2022-10-04T02:27:31.207Z,7.40
2022-10-04T02:30:03.498Z,6.60
2022-10-04T02:32:50.367Z,8.67
2022-10-04T02:35:19.068Z,7.40
2022-10-04T02:37:50.205Z,7.03
2022-10-04T02:40:23.259Z,8.47
2022-10-04T02:42:59.737Z,7.10
2022-10-04T02:45:35.492Z,7.23
2022-10-04T02:48:08.621Z,8.33
2022-10-04T02:50:40.637Z,7.70
2022-10-04T02:53:17.195Z,9.50
2022-10-04T02:55:47.590Z,6.60
2022-10-04T02:58:19.638Z,7.10
2022-10-04T03:00:49.758Z,8.40
2022-10-04T03:03:24.027Z,7.20
2022-10-04T03:06:02.835Z,8.00
2022-10-04T03:08:33.833Z,7.30
2022-10-04T03:11:05.386Z,7.53
2022-10-04T03:13:34.429Z,10.53
2022-10-04T03:16:03.029Z,11.40
2022-10-04T03:18:32.266Z,6.27
2022-10-04T03:21:03.361Z,7.80
2022-10-04T03:23:33.348Z,8.10
2022-10-04T03:26:06.309Z,7.70
2022-10-04T03:28:34.422Z,8.40
2022-10-04T03:31:02.598Z,6.70
2022-10-04T03:33:31.250Z,6.37
2022-10-04T03:36:01.079Z,8.07
2022-10-04T03:38:33.538Z,6.73
2022-10-04T03:41:04.940Z,7.07
2022-10-04T03:43:37.591Z,9.17
2022-10-04T03:46:07.332Z,7.47
2022-10-04T03:48:39.123Z,6.50
2022-10-04T03:51:11.855Z,7.33
2022-10-04T03:53:43.345Z,7.53
2022-10-04T03:56:16.192Z,7.97
2022-10-04T03:58:44.709Z,11.00
2022-10-04T04:01:27.637Z,9.00
2022-10-04T04:04:03.296Z,8.83
2022-10-04T04:06:41.337Z,8.13
2022-10-04T04:09:10.359Z,7.47
2022-10-04T04:11:39.989Z,8.30
2022-10-04T04:14:13.078Z,8.90
2022-10-04T04:16:41.253Z,7.63
2022-10-04T04:19:14.169Z,8.67
2022-10-04T04:21:42.930Z,10.57
2022-10-04T04:24:23.665Z,10.60
2022-10-04T04:26:57.446Z,12.73
2022-10-04T04:29:29.461Z,10.87
2022-10-04T04:32:01.431Z,13.97
2022-10-04T04:34:31.848Z,18.20
2022-10-04T04:37:01.231Z,15.30
2022-10-04T04:39:37.985Z,13.70
2022-10-04T04:42:18.061Z,16.80
2022-10-04T04:44:51.346Z,20.40
2022-10-04T04:47:29.007Z,30.90
2022-10-04T04:49:59.048Z,38.63
2022-10-04T04:52:29.739Z,21.57
2022-10-04T04:54:57.999Z,15.50
2022-10-04T04:57:27.275Z,21.93
2022-10-04T04:59:59.211Z,56.80
2022-10-04T05:02:33.203Z,26.83
2022-10-04T05:05:22.305Z,31.67
2022-10-04T05:07:50.245Z,15.10
2022-10-04T05:10:32.063Z,23.17
2022-10-04T05:13:02.556Z,26.13
2022-10-04T05:15:34.634Z,18.83
2022-10-04T05:18:04.070Z,17.17
2022-10-04T05:20:35.398Z,14.60
2022-10-04T05:23:03.240Z,25.23
2022-10-04T05:25:34.732Z,12.20
2022-10-04T05:28:05.387Z,16.27
2022-10-04T05:30:44.555Z,10.77
2022-10-04T05:33:14.872Z,28.67
2022-10-04T05:35:51.412Z,11.80
2022-10-04T05:38:29.326Z,12.07
2022-10-04T05:41:05.876Z,12.63
2022-10-04T05:43:38.694Z,21.30
2022-10-04T05:46:18.171Z,16.00
2022-10-04T05:48:52.556Z,15.20
2022-10-04T05:51:21.706Z,9.20
2022-10-04T05:53:52.027Z,17.63
2022-10-04T05:56:41.397Z,9.50
2022-10-04T05:59:25.520Z,9.87
2022-10-04T06:02:02.376Z,11.13
2022-10-04T06:04:44.959Z,9.50
2022-10-04T06:07:21.524Z,10.43
2022-10-04T06:10:05.760Z,11.67
2022-10-04T06:12:46.915Z,10.40
2022-10-04T06:15:49.963Z,12.50
2022-10-04T06:18:41.935Z,10.20
2022-10-04T06:21:28.488Z,6.77
2022-10-04T06:24:01.757Z,9.67
2022-10-04T06:26:34.046Z,12.20
2022-10-04T06:29:07.509Z,8.73
2022-10-04T06:32:01.708Z,7.90
2022-10-04T06:35:11.732Z,8.57
2022-10-04T06:38:06.517Z,10.03
2022-10-04T06:41:02.416Z,8.80
2022-10-04T06:43:51.044Z,10.43
2022-10-04T06:46:27.951Z,9.70
2022-10-04T06:49:18.510Z,8.73
2022-10-04T06:52:17.488Z,9.47
2022-10-04T06:55:19.694Z,9.30
2022-10-04T06:58:08.535Z,9.47
2022-10-04T07:00:45.256Z,8.23
2022-10-04T07:03:18.137Z,8.40
2022-10-04T07:05:51.846Z,8.70
2022-10-04T07:08:32.574Z,7.80
2022-10-04T07:11:07.307Z,9.30
2022-10-04T07:13:45.458Z,8.17
2022-10-04T07:16:30.149Z,9.37
2022-10-04T07:19:06.330Z,8.63
2022-10-04T07:21:40.966Z,8.90
2022-10-04T07:24:13.393Z,9.97
2022-10-04T07:26:48.115Z,13.03
2022-10-04T07:29:22.848Z,8.43
2022-10-04T07:31:55.227Z,9.00
2022-10-04T07:34:27.488Z,10.23
2022-10-04T07:36:59.364Z,7.60
2022-10-04T07:39:32.272Z,10.57
2022-10-04T07:42:11.001Z,9.20
2022-10-04T07:44:41.864Z,8.23
2022-10-04T07:47:19.036Z,9.90
2022-10-04T07:49:48.669Z,7.33
2022-10-04T07:52:41.652Z,8.10
2022-10-04T07:55:21.479Z,7.60
2022-10-04T07:58:00.187Z,8.27
2022-10-04T08:00:35.163Z,7.33
2022-10-04T08:03:30.616Z,8.10
2022-10-04T08:06:11.831Z,9.20
2022-10-04T08:09:03.326Z,11.13
2022-10-04T08:11:42.554Z,9.70
2022-10-04T08:14:28.127Z,9.00
2022-10-04T08:17:13.070Z,8.53
2022-10-04T08:19:57.883Z,7.87
2022-10-04T08:22:34.969Z,7.43
2022-10-04T08:25:15.184Z,6.63
2022-10-04T08:28:11.637Z,8.00
2022-10-04T08:30:52.018Z,13.53
2022-10-04T08:33:29.912Z,6.97
2022-10-04T08:36:12.036Z,7.33
2022-10-04T08:38:47.704Z,6.53
2022-10-04T08:41:58.703Z,8.40
2022-10-04T08:45:02.821Z,13.07
2022-10-04T08:48:18.194Z,6.30
2022-10-04T08:51:11.806Z,7.13
2022-10-04T08:54:28.367Z,10.80
2022-10-04T08:57:16.337Z,9.57
2022-10-04T09:00:15.370Z,7.00
2022-10-04T09:03:09.673Z,8.23
2022-10-04T09:06:15.241Z,8.37
2022-10-04T09:09:30.754Z,9.13
2022-10-04T09:12:22.983Z,10.80
2022-10-04T09:15:15.767Z,8.20
2022-10-04T09:17:54.477Z,9.00
2022-10-04T09:20:38.634Z,8.43
2022-10-04T09:23:24.891Z,8.10
2022-10-04T09:26:06.389Z,11.37
2022-10-04T09:29:28.396Z,7.90
2022-10-04T09:32:27.251Z,10.43
2022-10-04T09:35:17.588Z,11.23
2022-10-04T09:37:57.666Z,8.13
2022-10-04T09:41:01.911Z,9.57
2022-10-04T09:44:00.247Z,12.37
2022-10-04T09:46:57.441Z,8.60
2022-10-04T09:49:46.112Z,8.17
2022-10-04T09:52:30.816Z,9.23
2022-10-04T09:55:10.446Z,13.13
2022-10-04T09:57:55.668Z,11.80
2022-10-04T10:00:27.002Z,8.43
2022-10-04T10:03:36.730Z,9.87
2022-10-04T10:06:25.578Z,11.27
2022-10-04T10:09:11.449Z,10.50
2022-10-04T10:12:11.828Z,12.70
2022-10-04T10:15:01.121Z,10.20
2022-10-04T10:17:40.275Z,9.20
2022-10-04T10:20:40.162Z,10.73
2022-10-04T10:23:31.699Z,9.40
2022-10-04T10:26:17.906Z,10.83
2022-10-04T10:29:06.079Z,8.23
2022-10-04T10:31:57.810Z,10.60
2022-10-04T10:34:47.575Z,10.67
2022-10-04T10:37:22.319Z,7.80
2022-10-04T10:40:17.805Z,8.50
2022-10-04T10:43:34.884Z,10.27
2022-10-04T10:46:31.198Z,9.03
2022-10-04T10:49:22.227Z,8.80
2022-10-04T10:52:40.136Z,8.47
2022-10-04T10:55:53.797Z,9.07
2022-10-04T10:58:49.514Z,10.13
2022-10-04T11:01:41.042Z,8.13
2022-10-04T11:04:34.191Z,10.43
2022-10-04T11:07:24.667Z,8.27
2022-10-04T11:10:22.993Z,9.13
2022-10-04T11:13:08.873Z,6.80
2022-10-04T11:15:53.994Z,9.00
2022-10-04T11:18:58.533Z,5.80
2022-10-04T11:22:06.904Z,7.73
2022-10-04T11:25:12.050Z,7.43
2022-10-04T11:27:55.462Z,6.47
2022-10-04T11:30:28.922Z,8.40
2022-10-04T11:33:36.984Z,6.30
2022-10-04T11:36:33.867Z,5.77
2022-10-04T11:39:30.350Z,7.20
2022-10-04T11:42:08.128Z,6.33
2022-10-04T11:45:08.953Z,5.97
2022-10-04T11:47:49.860Z,6.97
2022-10-04T11:50:38.877Z,6.70
2022-10-04T11:53:27.874Z,6.87
2022-10-04T11:56:16.898Z,8.10
2022-10-04T11:59:04.817Z,6.20
2022-10-04T12:01:50.538Z,7.47
2022-10-04T12:04:43.656Z,7.50
2022-10-04T12:07:31.409Z,6.40
2022-10-04T12:10:10.618Z,8.90
2022-10-04T12:12:57.147Z,11.83
2022-10-04T12:15:53.515Z,7.07
2022-10-04T12:18:54.129Z,8.90
2022-10-04T12:21:35.927Z,9.40
2022-10-04T12:24:15.976Z,10.13
2022-10-04T12:27:25.480Z,6.37
2022-10-04T12:30:19.419Z,6.43
2022-10-04T12:32:58.126Z,8.67
2022-10-04T12:35:35.315Z,10.33
2022-10-04T12:38:23.078Z,8.17
2022-10-04T12:41:01.842Z,6.60
2022-10-04T12:43:38.335Z,7.47
2022-10-04T12:46:22.510Z,10.23
2022-10-04T12:49:17.783Z,10.43
2022-10-04T12:51:55.167Z,5.97
2022-10-04T12:54:34.260Z,6.27
2022-10-04T12:57:19.377Z,7.47
2022-10-04T12:59:55.999Z,5.90
2022-10-04T13:02:37.695Z,8.13
2022-10-04T13:05:17.277Z,7.13
2022-10-04T13:08:12.024Z,8.10
2022-10-04T13:10:53.292Z,5.27
2022-10-04T13:13:50.943Z,6.90
2022-10-04T13:19:23.381Z,7.90
2022-10-04T13:22:07.991Z,5.30
2022-10-04T13:24:55.952Z,9.40
2022-10-04T13:27:35.441Z,5.57
2022-10-04T13:30:08.872Z,4.67
2022-10-04T13:32:43.532Z,6.50
2022-10-04T13:35:20.922Z,9.30
2022-10-04T13:38:06.623Z,8.73
2022-10-04T13:40:45.731Z,9.33
2022-10-04T13:43:39.292Z,6.90
2022-10-04T13:46:22.369Z,6.10
2022-10-04T13:49:06.989Z,6.67
2022-10-04T13:51:47.693Z,5.60
2022-10-04T13:54:43.875Z,5.30
2022-10-04T13:57:21.525Z,8.17
2022-10-04T14:00:00.107Z,6.27
2022-10-04T14:03:19.464Z,4.77
2022-10-04T14:06:14.269Z,5.33
2022-10-04T14:09:02.123Z,5.87
2022-10-04T14:12:15.962Z,5.60
2022-10-04T14:15:30.558Z,7.80
2022-10-04T14:18:32.337Z,7.87
2022-10-04T14:21:45.340Z,4.70
2022-10-04T14:24:49.822Z,6.00
2022-10-04T14:27:51.159Z,4.43
2022-10-04T14:30:23.281Z,4.90
2022-10-04T14:33:29.840Z,7.87
2022-10-04T14:36:23.860Z,7.90
2022-10-04T14:39:13.805Z,5.33
2022-10-04T14:42:13.052Z,5.67
2022-10-04T14:45:21.041Z,7.40
2022-10-04T14:48:19.593Z,5.93
2022-10-04T14:51:04.792Z,6.80
2022-10-04T14:53:36.935Z,8.97
2022-10-04T14:56:32.747Z,5.17
2022-10-04T14:59:09.618Z,6.90
2022-10-04T15:01:45.982Z,4.20
2022-10-04T15:04:31.296Z,4.40
2022-10-04T15:07:03.476Z,4.60
2022-10-04T15:09:48.414Z,8.93
2022-10-04T15:13:09.897Z,6.27
2022-10-04T15:15:42.226Z,5.50
2022-10-04T15:18:31.672Z,8.43
2022-10-04T15:21:03.262Z,5.50
2022-10-04T15:23:37.830Z,5.90
2022-10-04T15:26:38.906Z,7.50
2022-10-04T15:29:23.866Z,6.37
2022-10-04T15:31:58.280Z,5.47
2022-10-04T15:34:34.211Z,5.00
2022-10-04T15:37:17.814Z,8.03
2022-10-04T15:40:04.123Z,5.37
2022-10-04T15:42:35.902Z,4.87
2022-10-04T15:45:32.640Z,5.03
2022-10-04T15:48:24.745Z,5.50
2022-10-04T15:51:04.914Z,5.50
2022-10-04T15:53:59.666Z,6.27
2022-10-04T15:56:43.049Z,5.23
2022-10-04T15:59:37.376Z,5.43
2022-10-04T16:02:31.012Z,5.17
2022-10-04T16:05:14.115Z,5.83
2022-10-04T16:07:59.074Z,5.40
2022-10-04T16:10:31.997Z,5.93
2022-10-04T16:13:26.564Z,6.43
2022-10-04T16:16:26.183Z,6.53
2022-10-04T16:19:05.662Z,6.03
2022-10-04T16:21:44.084Z,5.93
2022-10-04T16:24:40.811Z,7.13
2022-10-04T16:27:43.732Z,5.60
2022-10-04T16:30:27.496Z,5.43
2022-10-04T16:33:23.440Z,8.90
2022-10-04T16:36:06.167Z,8.57
2022-10-04T16:38:57.814Z,7.30
2022-10-04T16:41:34.467Z,9.43
2022-10-04T16:44:03.786Z,19.63
2022-10-04T16:46:37.645Z,28.97
2022-10-04T16:49:21.916Z,21.10
2022-10-04T16:52:09.153Z,9.90
2022-10-04T16:55:22.377Z,7.80
2022-10-04T16:58:23.304Z,8.10
2022-10-04T17:00:52.922Z,8.03
2022-10-04T17:03:27.935Z,7.77
2022-10-04T17:06:14.121Z,7.97
2022-10-04T17:08:54.371Z,6.80
2022-10-04T17:11:45.614Z,7.73
2022-10-04T17:14:49.370Z,8.23
2022-10-04T17:17:25.234Z,8.10
2022-10-04T17:19:57.365Z,12.00
2022-10-04T17:22:34.999Z,11.70
2022-10-04T17:25:18.558Z,7.27
2022-10-04T17:27:51.207Z,9.33
2022-10-04T17:30:21.754Z,6.53
2022-10-04T17:33:07.545Z,9.60
2022-10-04T17:36:15.679Z,14.73
2022-10-04T17:38:49.918Z,10.07
2022-10-04T17:41:28.499Z,9.90
2022-10-04T17:44:27.796Z,7.80
2022-10-04T17:47:01.683Z,8.40
2022-10-04T17:49:55.836Z,8.53
2022-10-04T17:52:48.095Z,9.40
2022-10-04T17:55:22.185Z,8.67
2022-10-04T17:57:56.549Z,13.77
2022-10-04T18:00:26.278Z,7.27
2022-10-04T18:03:06.326Z,9.73
2022-10-04T18:05:45.325Z,8.83
2022-10-04T18:08:20.645Z,11.53
2022-10-04T18:10:52.201Z,9.83
2022-10-04T18:13:29.376Z,9.27
2022-10-04T18:16:05.133Z,8.63
2022-10-04T18:18:40.144Z,8.13
2022-10-04T18:21:20.765Z,9.00
2022-10-04T18:24:00.852Z,8.90
2022-10-04T18:26:31.017Z,10.13
2022-10-04T18:29:02.149Z,14.13
2022-10-04T18:31:33.472Z,8.63
2022-10-04T18:34:16.834Z,7.00
2022-10-04T18:36:53.743Z,10.60
2022-10-04T18:39:24.188Z,7.93
2022-10-04T18:42:01.326Z,6.20
2022-10-04T18:44:45.097Z,8.40
2022-10-04T18:47:21.246Z,7.47
2022-10-04T18:49:53.398Z,10.10
2022-10-04T18:52:38.926Z,7.27
2022-10-04T18:55:20.218Z,6.67
2022-10-04T18:58:18.291Z,12.33
2022-10-04T19:01:12.251Z,8.27
2022-10-04T19:03:48.336Z,7.37
2022-10-04T19:06:22.802Z,7.90
2022-10-04T19:08:57.955Z,9.00
2022-10-04T19:11:31.455Z,7.83
2022-10-04T19:14:09.196Z,7.77
2022-10-04T19:16:49.093Z,6.03
2022-10-04T19:19:38.687Z,9.70
2022-10-04T19:22:17.716Z,10.57
2022-10-04T19:24:59.832Z,7.97
2022-10-04T19:27:36.300Z,9.63
2022-10-04T19:30:14.304Z,12.53
2022-10-04T19:32:57.519Z,13.60
2022-10-04T19:35:43.394Z,11.57
2022-10-04T19:38:24.785Z,12.73
2022-10-04T19:40:57.575Z,11.03
2022-10-04T19:43:35.132Z,9.10
2022-10-04T19:46:14.981Z,9.40
2022-10-04T19:48:50.190Z,9.03
2022-10-04T19:51:23.830Z,10.07
2022-10-04T19:53:57.712Z,9.47
2022-10-04T19:56:32.371Z,12.70
2022-10-04T19:59:09.184Z,8.80
2022-10-04T20:01:38.634Z,8.00
2022-10-04T20:04:31.342Z,8.17
2022-10-04T20:07:01.148Z,11.63
2022-10-04T20:09:35.391Z,10.33
2022-10-04T20:12:03.702Z,7.23
2022-10-04T20:15:15.175Z,8.47
2022-10-04T20:17:43.789Z,7.83
2022-10-04T20:20:16.428Z,11.50
2022-10-04T20:22:58.200Z,10.67
2022-10-04T20:26:01.015Z,7.73
2022-10-04T20:28:41.698Z,13.70
2022-10-04T20:31:10.982Z,7.97
2022-10-04T20:33:49.730Z,10.73
2022-10-04T20:36:53.151Z,7.17
2022-10-04T20:40:00.674Z,7.60
2022-10-04T20:42:38.988Z,6.10
2022-10-04T20:45:27.640Z,7.43
2022-10-04T20:47:57.609Z,6.10
2022-10-04T20:50:35.989Z,5.83
2022-10-04T20:53:13.065Z,6.60
2022-10-04T20:55:41.023Z,6.20
2022-10-04T20:58:25.792Z,7.17
2022-10-04T21:00:54.976Z,7.57
2022-10-04T21:03:23.412Z,7.03
2022-10-04T21:06:03.148Z,5.57
2022-10-04T21:08:33.000Z,6.13
2022-10-04T21:11:20.763Z,6.83
2022-10-04T21:13:51.974Z,5.10
2022-10-04T21:16:40.896Z,5.57
2022-10-04T21:19:31.535Z,5.33
2022-10-04T21:22:00.887Z,5.40
2022-10-04T21:24:35.726Z,4.57
2022-10-04T21:27:04.436Z,6.30
2022-10-04T21:29:32.512Z,8.03
2022-10-04T21:32:01.020Z,5.47
2022-10-04T21:34:51.996Z,5.23
2022-10-04T21:37:17.168Z,5.73
2022-10-04T21:39:46.562Z,10.23
2022-10-04T21:42:14.507Z,12.43
2022-10-04T21:44:42.315Z,8.50
2022-10-04T21:47:10.473Z,5.97
2022-10-04T21:49:38.518Z,6.07
2022-10-04T21:52:07.024Z,5.00
2022-10-04T21:54:35.212Z,4.97
2022-10-04T21:57:04.377Z,6.33
2022-10-04T21:59:32.198Z,6.43
2022-10-04T22:02:00.034Z,5.87
2022-10-04T22:04:27.958Z,7.80
2022-10-04T22:06:55.771Z,6.40
2022-10-04T22:09:23.554Z,6.70
2022-10-04T22:11:51.339Z,7.83
2022-10-04T22:14:20.504Z,5.97
2022-10-04T22:16:48.803Z,9.87
2022-10-04T22:19:17.074Z,4.90
2022-10-04T22:21:44.964Z,5.30
2022-10-04T22:24:18.533Z,5.43
2022-10-04T22:26:47.041Z,7.50
2022-10-04T22:29:16.776Z,5.70
2022-10-04T22:31:50.777Z,8.43
2022-10-04T22:34:20.398Z,6.47
2022-10-04T22:36:49.928Z,4.17
2022-10-04T22:39:19.310Z,6.47
2022-10-04T22:41:48.714Z,6.27
2022-10-04T22:44:19.190Z,3.47
2022-10-04T22:46:50.553Z,5.97
2022-10-04T22:49:22.275Z,10.20
2022-10-04T22:51:52.162Z,5.10
2022-10-04T22:54:22.098Z,6.60
2022-10-04T22:56:51.591Z,7.93
2022-10-04T22:59:21.292Z,9.10
2022-10-04T23:01:50.529Z,3.63
2022-10-04T23:04:22.434Z,4.27
2022-10-04T23:06:51.040Z,5.30
2022-10-04T23:09:19.060Z,3.30
2022-10-04T23:11:47.073Z,4.00
2022-10-04T23:14:14.981Z,4.50
2022-10-04T23:16:44.584Z,3.50
2022-10-04T23:19:18.664Z,3.77
2022-10-04T23:21:47.932Z,3.80
2022-10-04T23:24:17.420Z,5.70
2022-10-04T23:26:48.351Z,4.10
2022-10-04T23:29:19.431Z,4.27
2022-10-04T23:31:49.741Z,3.10
2022-10-04T23:34:23.129Z,6.03
2022-10-04T23:36:52.499Z,3.47
2022-10-04T23:39:25.503Z,5.13
2022-10-04T23:41:54.347Z,6.80
2022-10-04T23:44:24.711Z,4.93
2022-10-04T23:46:53.074Z,3.37
2022-10-04T23:49:22.583Z,4.13
2022-10-04T23:51:55.466Z,4.83
2022-10-04T23:54:24.490Z,4.97
2022-10-04T23:56:52.535Z,4.60
2022-10-04T23:59:24.582Z,4.97
